createdAt,value
2018-03-25T00:00:30.907Z,99.90
2018-03-25T00:02:58.466Z,99.90
2018-03-25T00:05:26.740Z,99.90
2018-03-25T00:07:54.276Z,99.90
2018-03-25T00:10:22.546Z,99.90
2018-03-25T00:12:50.035Z,99.90
2018-03-25T00:15:18.419Z,99.90
2018-03-25T00:17:45.980Z,99.90
2018-03-25T00:20:13.553Z,99.90
2018-03-25T00:22:41.046Z,99.90
2018-03-25T00:25:08.639Z,99.90
2018-03-25T00:27:36.881Z,99.90
2018-03-25T00:30:04.382Z,99.90
2018-03-25T00:32:31.936Z,99.90
2018-03-25T00:35:00.220Z,99.90
2018-03-25T00:37:28.510Z,99.90
2018-03-25T00:39:56.045Z,99.90
2018-03-25T00:42:24.327Z,99.90
2018-03-25T00:44:52.609Z,99.90
2018-03-25T00:47:20.946Z,99.90
2018-03-25T00:49:48.451Z,99.90
2018-03-25T00:52:15.976Z,99.90
2018-03-25T00:54:43.451Z,99.90
2018-03-25T00:57:11.724Z,99.90
2018-03-25T00:59:39.303Z,99.90
2018-03-25T01:02:07.574Z,99.90
2018-03-25T01:04:35.855Z,99.90
2018-03-25T01:07:04.216Z,99.90
2018-03-25T01:09:32.487Z,99.90
2018-03-25T01:12:00.782Z,99.90
2018-03-25T01:14:29.096Z,99.90
2018-03-25T01:16:56.615Z,99.90
2018-03-25T01:19:24.891Z,99.90
2018-03-25T01:21:53.155Z,99.90
2018-03-25T01:24:21.722Z,99.90
2018-03-25T01:26:49.247Z,99.90
2018-03-25T01:29:16.755Z,99.90
2018-03-25T01:31:45.014Z,99.90
2018-03-25T01:34:12.489Z,99.90
2018-03-25T01:36:40.790Z,99.90
2018-03-25T01:39:09.068Z,99.90
2018-03-25T01:41:37.372Z,99.90
2018-03-25T01:44:04.889Z,99.90
2018-03-25T01:46:32.457Z,99.90
2018-03-25T01:49:00.704Z,99.90
2018-03-25T01:51:28.203Z,99.90
2018-03-25T01:53:56.451Z,99.90
2018-03-25T01:56:23.935Z,99.90
2018-03-25T01:58:52.202Z,99.90
2018-03-25T02:01:20.488Z,99.90
2018-03-25T02:03:48.764Z,99.90
2018-03-25T02:06:17.040Z,99.90
2018-03-25T02:08:45.290Z,99.90
2018-03-25T02:11:12.785Z,99.90
2018-03-25T02:13:40.331Z,99.90
2018-03-25T02:16:08.607Z,99.90
2018-03-25T02:18:36.861Z,99.90
2018-03-25T02:21:04.470Z,99.90
2018-03-25T02:23:32.350Z,99.90
2018-03-25T02:25:59.836Z,99.90
2018-03-25T02:28:27.427Z,99.90
2018-03-25T02:30:55.683Z,99.90
2018-03-25T02:33:23.179Z,99.90
2018-03-25T02:35:50.679Z,99.90
2018-03-25T02:38:18.181Z,99.90
2018-03-25T02:40:46.427Z,99.90
2018-03-25T02:43:13.943Z,99.90
2018-03-25T02:45:41.433Z,99.90
2018-03-25T02:48:08.931Z,99.90
2018-03-25T02:50:37.202Z,99.90
2018-03-25T02:53:05.507Z,99.90
2018-03-25T02:55:33.003Z,99.90
2018-03-25T02:58:00.511Z,99.90
2018-03-25T03:00:28.018Z,99.90
2018-03-25T03:02:55.614Z,99.90
2018-03-25T03:05:23.903Z,99.90
2018-03-25T03:07:52.145Z,99.90
2018-03-25T03:10:19.734Z,99.90
2018-03-25T03:12:48.019Z,99.90
2018-03-25T03:15:16.282Z,99.90
2018-03-25T03:17:44.566Z,99.90
2018-03-25T03:20:12.830Z,99.90
2018-03-25T03:22:40.315Z,99.90
2018-03-25T03:25:07.858Z,99.90
2018-03-25T03:27:36.485Z,99.90
2018-03-25T03:30:03.974Z,99.90
2018-03-25T03:32:31.563Z,99.90
2018-03-25T03:34:59.827Z,99.90
2018-03-25T03:37:27.399Z,99.90
2018-03-25T03:39:55.687Z,99.90
2018-03-25T03:42:23.233Z,99.90
2018-03-25T03:44:51.525Z,99.90
2018-03-25T03:47:19.781Z,99.90
2018-03-25T03:49:47.346Z,99.90
2018-03-25T03:52:15.585Z,99.90
2018-03-25T03:54:43.081Z,99.90
2018-03-25T03:57:11.362Z,99.90
2018-03-25T03:59:39.642Z,99.90
2018-03-25T04:02:07.903Z,99.90
2018-03-25T04:04:36.187Z,99.90
2018-03-25T04:07:04.471Z,99.90
2018-03-25T04:09:32.732Z,99.90
2018-03-25T04:12:00.245Z,99.90
2018-03-25T04:14:27.718Z,99.90
2018-03-25T04:16:55.198Z,99.90
2018-03-25T04:19:22.778Z,99.90
2018-03-25T04:21:51.025Z,99.90
2018-03-25T04:24:18.615Z,99.90
2018-03-25T04:26:46.114Z,99.90
2018-03-25T04:29:13.627Z,99.90
2018-03-25T04:31:41.892Z,99.90
2018-03-25T04:34:09.407Z,99.90
2018-03-25T04:36:36.923Z,99.90
2018-03-25T04:39:05.183Z,99.90
2018-03-25T04:41:32.691Z,99.90
2018-03-25T04:44:00.522Z,99.90
2018-03-25T04:46:28.777Z,99.90
2018-03-25T04:48:56.270Z,99.90
2018-03-25T04:51:24.531Z,99.90
2018-03-25T04:53:53.263Z,99.90
2018-03-25T04:56:20.774Z,99.90
2018-03-25T04:58:49.070Z,99.90
2018-03-25T05:01:17.338Z,99.90
2018-03-25T05:03:45.608Z,99.90
2018-03-25T05:06:13.897Z,99.90
2018-03-25T05:08:42.170Z,99.90
2018-03-25T05:11:10.438Z,99.90
2018-03-25T05:13:38.691Z,99.90
2018-03-25T05:16:06.170Z,99.90
2018-03-25T05:18:34.454Z,99.90
2018-03-25T05:21:02.705Z,99.90
2018-03-25T05:23:30.298Z,99.90
2018-03-25T05:25:58.588Z,99.90
2018-03-25T05:28:26.147Z,99.90
2018-03-25T05:30:53.637Z,99.90
2018-03-25T05:33:21.755Z,99.90
2018-03-25T05:35:50.050Z,99.90
2018-03-25T05:38:17.619Z,99.90
2018-03-25T05:40:45.127Z,99.90
2018-03-25T05:43:13.761Z,99.90
2018-03-25T05:45:41.250Z,99.90
2018-03-25T05:48:08.756Z,99.90
2018-03-25T05:50:37.023Z,99.90
2018-03-25T05:53:04.517Z,99.90
2018-03-25T05:55:32.036Z,99.90
2018-03-25T05:57:59.622Z,99.90
2018-03-25T06:00:27.098Z,99.90
2018-03-25T06:02:54.599Z,99.90
2018-03-25T06:05:22.091Z,99.90
2018-03-25T06:07:49.585Z,99.90
2018-03-25T06:10:17.104Z,99.90
2018-03-25T06:12:45.350Z,99.90
2018-03-25T06:15:12.931Z,99.90
2018-03-25T06:17:40.450Z,99.90
2018-03-25T06:20:07.935Z,99.90
2018-03-25T06:22:36.926Z,99.90
2018-03-25T06:25:04.422Z,99.90
2018-03-25T06:27:31.970Z,99.90
2018-03-25T06:29:59.528Z,99.90
2018-03-25T06:32:27.902Z,99.90
2018-03-25T06:34:56.187Z,99.90
2018-03-25T06:37:23.735Z,99.90
2018-03-25T06:39:52.424Z,99.90
2018-03-25T06:42:19.919Z,99.90
2018-03-25T06:44:47.416Z,99.90
2018-03-25T06:47:14.939Z,99.90
2018-03-25T06:49:42.425Z,99.90
2018-03-25T06:52:09.911Z,99.90
2018-03-25T06:54:38.218Z,99.90
2018-03-25T06:57:05.830Z,99.90
2018-03-25T06:59:33.313Z,99.90
2018-03-25T07:02:00.940Z,99.90
2018-03-25T07:04:28.432Z,99.90
2018-03-25T07:06:56.703Z,99.90
2018-03-25T07:09:25.087Z,99.90
2018-03-25T07:11:53.378Z,99.90
2018-03-25T07:14:20.998Z,99.90
2018-03-25T07:16:48.505Z,99.90
2018-03-25T07:19:16.183Z,99.90
2018-03-25T07:21:43.699Z,99.90
2018-03-25T07:24:12.016Z,99.90
2018-03-25T07:26:39.497Z,99.90
2018-03-25T07:29:07.006Z,99.90
2018-03-25T07:31:35.307Z,99.90
2018-03-25T07:34:02.812Z,99.90
2018-03-25T07:36:30.307Z,99.90
2018-03-25T07:38:58.607Z,99.90
2018-03-25T07:41:26.104Z,99.90
2018-03-25T07:43:53.580Z,99.90
2018-03-25T07:46:21.147Z,99.90
2018-03-25T07:48:49.432Z,99.10
2018-03-25T07:51:17.677Z,98.60
2018-03-25T07:53:45.181Z,98.60
2018-03-25T07:56:12.703Z,99.00
2018-03-25T07:58:40.284Z,98.30
2018-03-25T08:01:08.620Z,98.40
2018-03-25T08:03:36.122Z,98.40
2018-03-25T08:06:03.629Z,97.90
2018-03-25T08:08:31.179Z,98.00
2018-03-25T08:10:58.687Z,97.40
2018-03-25T08:13:26.213Z,97.20
2018-03-25T08:15:53.715Z,97.10
2018-03-25T08:18:21.986Z,96.90
2018-03-25T08:20:50.236Z,96.60
2018-03-25T08:23:17.821Z,96.60
2018-03-25T08:25:46.070Z,95.40
2018-03-25T08:28:13.655Z,95.40
2018-03-25T08:30:41.922Z,94.50
2018-03-25T08:33:09.408Z,94.40
2018-03-25T08:35:36.898Z,94.10
2018-03-25T08:38:04.407Z,93.60
2018-03-25T08:40:32.662Z,94.20
2018-03-25T08:43:00.181Z,94.10
2018-03-25T08:45:27.730Z,92.60
2018-03-25T08:47:55.219Z,91.70
2018-03-25T08:50:22.726Z,91.80
2018-03-25T08:52:50.991Z,88.80
2018-03-25T08:55:18.474Z,88.70
2018-03-25T08:57:46.033Z,88.60
2018-03-25T09:00:13.539Z,87.30
2018-03-25T09:02:41.039Z,81.30
2018-03-25T09:05:09.287Z,79.30
2018-03-25T09:07:36.818Z,79.30
2018-03-25T09:10:04.363Z,71.20
2018-03-25T09:12:31.852Z,68.20
2018-03-25T09:14:59.455Z,64.30
2018-03-25T09:17:27.689Z,73.60
2018-03-25T09:19:55.187Z,76.30
2018-03-25T09:22:23.453Z,53.90
2018-03-25T09:24:51.032Z,54.00
2018-03-25T09:27:20.171Z,49.10
2018-03-25T09:29:47.706Z,49.20
2018-03-25T09:32:15.186Z,48.40
2018-03-25T09:34:42.698Z,46.50
2018-03-25T09:37:11.001Z,44.30
2018-03-25T09:39:38.502Z,44.00
2018-03-25T09:42:06.039Z,52.30
2018-03-25T09:44:33.651Z,45.60
2018-03-25T09:47:01.924Z,45.70
2018-03-25T09:49:30.207Z,43.60
2018-03-25T09:51:58.581Z,41.60
2018-03-25T09:54:26.852Z,43.40
2018-03-25T09:56:54.335Z,43.40
2018-03-25T09:59:21.966Z,41.80
2018-03-25T10:01:55.167Z,40.30
2018-03-25T10:04:23.444Z,38.20
2018-03-25T10:06:51.705Z,38.80
2018-03-25T10:09:19.288Z,38.80
2018-03-25T10:11:47.551Z,37.60
2018-03-25T10:14:15.119Z,37.50
2018-03-25T10:16:43.418Z,38.50
2018-03-25T10:19:11.809Z,42.30
2018-03-25T10:21:39.338Z,42.20
2018-03-25T10:24:07.596Z,35.40
2018-03-25T10:26:35.183Z,35.40
2018-03-25T10:29:02.742Z,34.00
2018-03-25T10:31:31.016Z,34.10
2018-03-25T10:33:59.390Z,33.70
2018-03-25T10:36:27.674Z,33.20
2018-03-25T10:38:55.919Z,34.20
2018-03-25T10:41:23.502Z,34.20
2018-03-25T10:43:51.762Z,33.60
2018-03-25T10:46:19.251Z,33.50
2018-03-25T10:48:46.777Z,33.50
2018-03-25T10:51:14.298Z,32.40
2018-03-25T10:53:41.792Z,33.20
2018-03-25T10:56:09.304Z,33.80
2018-03-25T10:58:36.804Z,33.90
2018-03-25T11:01:04.298Z,32.20
2018-03-25T11:03:32.574Z,32.30
2018-03-25T11:06:00.822Z,31.30
2018-03-25T11:08:28.331Z,31.30
2018-03-25T11:10:55.854Z,31.90
2018-03-25T11:13:24.112Z,31.10
2018-03-25T11:15:51.713Z,31.10
2018-03-25T11:18:19.229Z,30.20
2018-03-25T11:20:46.737Z,30.00
2018-03-25T11:23:14.223Z,31.00
2018-03-25T11:25:41.841Z,30.40
2018-03-25T11:28:10.114Z,31.30
2018-03-25T11:30:38.379Z,30.30
2018-03-25T11:33:06.651Z,29.20
2018-03-25T11:35:34.929Z,29.30
2018-03-25T11:38:02.415Z,29.20
2018-03-25T11:40:29.968Z,29.40
2018-03-25T11:42:57.545Z,29.00
2018-03-25T11:45:25.140Z,29.10
2018-03-25T11:47:52.712Z,30.00
2018-03-25T11:50:20.202Z,28.50
2018-03-25T11:52:48.487Z,28.00
2018-03-25T11:55:16.034Z,28.00
2018-03-25T11:57:44.325Z,27.80
2018-03-25T12:00:11.824Z,27.80
2018-03-25T12:02:39.332Z,28.90
2018-03-25T12:05:07.595Z,28.10
2018-03-25T12:07:35.849Z,28.40
2018-03-25T12:10:03.446Z,28.20
2018-03-25T12:12:31.716Z,29.20
2018-03-25T12:15:00.022Z,27.90
2018-03-25T12:17:27.770Z,27.80
2018-03-25T12:19:55.301Z,28.00
2018-03-25T12:22:23.597Z,27.20
2018-03-25T12:24:51.890Z,28.70
2018-03-25T12:27:19.458Z,28.60
2018-03-25T12:29:46.951Z,28.50
2018-03-25T12:32:14.455Z,27.90
2018-03-25T12:34:41.940Z,27.20
2018-03-25T12:37:09.466Z,26.50
2018-03-25T12:39:36.979Z,26.80
2018-03-25T12:42:04.463Z,27.50
2018-03-25T12:44:31.972Z,28.90
2018-03-25T12:46:59.481Z,29.40
2018-03-25T12:49:27.058Z,27.80
2018-03-25T12:51:55.317Z,27.90
2018-03-25T12:54:23.615Z,27.80
2018-03-25T12:56:51.138Z,27.90
2018-03-25T12:59:18.626Z,28.50
2018-03-25T13:01:46.912Z,27.60
2018-03-25T13:04:15.184Z,27.70
2018-03-25T13:06:43.519Z,27.80
2018-03-25T13:09:11.015Z,27.80
2018-03-25T13:11:39.307Z,28.10
2018-03-25T13:14:06.795Z,28.00
2018-03-25T13:16:34.310Z,28.20
2018-03-25T13:19:02.702Z,28.70
2018-03-25T13:21:31.011Z,29.20
2018-03-25T13:23:59.243Z,28.50
2018-03-25T13:26:27.516Z,28.20
2018-03-25T13:28:55.916Z,28.80
2018-03-25T13:31:23.351Z,28.80
2018-03-25T13:33:50.918Z,28.30
2018-03-25T13:36:19.167Z,29.40
2018-03-25T13:38:46.681Z,29.40
2018-03-25T13:41:14.307Z,29.30
2018-03-25T13:43:41.907Z,31.10
2018-03-25T13:46:09.495Z,31.30
2018-03-25T13:48:36.985Z,32.00
2018-03-25T13:51:05.244Z,33.60
2018-03-25T13:53:32.751Z,34.10
2018-03-25T13:56:00.241Z,34.00
2018-03-25T13:58:27.725Z,34.20
2018-03-25T14:00:55.325Z,34.90
2018-03-25T14:03:22.862Z,35.00
2018-03-25T14:05:51.142Z,35.60
2018-03-25T14:08:19.411Z,36.20
2018-03-25T14:10:47.785Z,36.80
2018-03-25T14:13:15.356Z,36.70
2018-03-25T14:15:43.767Z,37.40
2018-03-25T14:18:11.252Z,37.20
2018-03-25T14:20:38.751Z,37.80
2018-03-25T14:23:07.125Z,36.80
2018-03-25T14:25:34.688Z,36.70
2018-03-25T14:28:02.385Z,37.30
2018-03-25T14:30:29.962Z,37.70
2018-03-25T14:32:57.434Z,36.80
2018-03-25T14:35:24.927Z,36.60
2018-03-25T14:37:53.298Z,37.90
2018-03-25T14:40:20.876Z,37.80
2018-03-25T14:42:49.204Z,38.70
2018-03-25T14:45:16.821Z,38.60
2018-03-25T14:47:45.074Z,41.10
2018-03-25T14:50:12.634Z,40.90
2018-03-25T14:52:40.178Z,41.30
2018-03-25T14:55:09.193Z,40.40
2018-03-25T14:57:36.755Z,40.50
2018-03-25T15:00:05.031Z,42.90
2018-03-25T15:02:33.355Z,46.60
2018-03-25T15:05:00.868Z,46.10
2018-03-25T15:07:29.135Z,42.40
2018-03-25T15:09:56.619Z,42.30
2018-03-25T15:12:24.866Z,46.20
2018-03-25T15:14:52.579Z,46.20
2018-03-25T15:17:20.079Z,43.90
2018-03-25T15:19:47.682Z,47.20
2018-03-25T15:22:15.189Z,45.20
2018-03-25T15:24:42.690Z,46.60
2018-03-25T15:27:10.935Z,51.60
2018-03-25T15:29:38.441Z,51.60
2018-03-25T15:32:05.984Z,48.60
2018-03-25T15:34:34.227Z,55.10
2018-03-25T15:37:03.357Z,54.90
2018-03-25T15:39:30.923Z,57.00
2018-03-25T15:41:59.166Z,61.30
2018-03-25T15:44:26.670Z,61.10
2018-03-25T15:46:54.170Z,62.80
2018-03-25T15:49:21.720Z,61.60
2018-03-25T15:51:49.399Z,63.40
2018-03-25T15:54:16.840Z,66.90
2018-03-25T15:56:44.410Z,68.10
2018-03-25T15:59:12.632Z,70.80
2018-03-25T16:01:40.127Z,67.40
2018-03-25T16:04:07.614Z,71.80
2018-03-25T16:06:35.158Z,74.60
2018-03-25T16:09:02.651Z,74.30
2018-03-25T16:11:30.893Z,76.70
2018-03-25T16:13:58.416Z,76.70
2018-03-25T16:16:25.945Z,78.80
2018-03-25T16:18:54.226Z,80.10
2018-03-25T16:21:22.606Z,81.80
2018-03-25T16:23:50.875Z,82.10
2018-03-25T16:26:19.121Z,82.70
2018-03-25T16:28:46.724Z,82.70
2018-03-25T16:31:14.277Z,83.60
2018-03-25T16:33:42.518Z,84.70
2018-03-25T16:36:10.018Z,84.60
2018-03-25T16:38:38.316Z,86.30
2018-03-25T16:41:05.809Z,86.20
2018-03-25T16:43:35.881Z,88.50
2018-03-25T16:46:03.367Z,89.10
2018-03-25T16:48:30.873Z,87.50
2018-03-25T16:50:59.151Z,89.20
2018-03-25T16:53:27.723Z,89.20
2018-03-25T16:55:55.993Z,90.70
2018-03-25T16:58:23.490Z,90.70
2018-03-25T17:00:51.041Z,90.60
2018-03-25T17:03:19.366Z,91.20
2018-03-25T17:05:46.964Z,91.20
2018-03-25T17:08:14.535Z,91.10
2018-03-25T17:10:42.802Z,91.60
2018-03-25T17:13:11.075Z,92.00
2018-03-25T17:15:39.381Z,92.40
2018-03-25T17:18:06.926Z,92.30
2018-03-25T17:20:35.211Z,92.80
2018-03-25T17:23:02.887Z,92.70
2018-03-25T17:25:30.402Z,92.80
2018-03-25T17:27:57.922Z,93.10
2018-03-25T17:30:25.448Z,93.00
2018-03-25T17:32:53.723Z,93.30
2018-03-25T17:35:22.130Z,93.40
2018-03-25T17:37:49.629Z,93.40
2018-03-25T17:40:17.151Z,93.50
2018-03-25T17:42:44.695Z,93.80
2018-03-25T17:45:12.195Z,94.40
2018-03-25T17:47:39.687Z,94.30
2018-03-25T17:50:07.198Z,94.90
2018-03-25T17:52:34.674Z,94.70
2018-03-25T17:55:02.331Z,95.10
2018-03-25T17:57:29.850Z,95.30
2018-03-25T17:59:57.455Z,95.70
2018-03-25T18:02:24.942Z,95.90
2018-03-25T18:04:53.220Z,96.00
2018-03-25T18:07:21.524Z,96.30
2018-03-25T18:09:49.030Z,96.30
2018-03-25T18:12:16.540Z,96.70
2018-03-25T18:14:44.032Z,97.30
2018-03-25T18:17:33.462Z,96.80
2018-03-25T18:19:40.833Z,96.90
2018-03-25T18:22:09.074Z,97.10
2018-03-25T18:24:36.635Z,97.10
2018-03-25T18:27:04.148Z,97.30
2018-03-25T18:29:31.640Z,97.40
2018-03-25T18:31:59.133Z,99.90
2018-03-25T18:34:26.634Z,99.90
2018-03-25T18:36:54.223Z,97.50
2018-03-25T18:39:21.710Z,97.20
2018-03-25T18:41:49.627Z,97.50
2018-03-25T18:44:17.130Z,97.70
2018-03-25T18:46:44.623Z,98.10
2018-03-25T18:49:12.179Z,98.00
2018-03-25T18:51:39.623Z,98.20
2018-03-25T18:54:07.883Z,98.90
2018-03-25T18:56:35.410Z,98.60
2018-03-25T18:59:02.909Z,98.70
2018-03-25T19:01:31.157Z,98.90
2018-03-25T19:03:58.747Z,98.90
2018-03-25T19:06:27.038Z,99.30
2018-03-25T19:08:55.309Z,99.60
2018-03-25T19:11:23.603Z,99.60
2018-03-25T19:13:51.113Z,99.60
2018-03-25T19:16:18.590Z,99.70
2018-03-25T19:18:46.124Z,99.90
2018-03-25T19:21:13.620Z,99.90
2018-03-25T19:23:41.897Z,99.90
2018-03-25T19:26:10.159Z,99.90
2018-03-25T19:28:37.633Z,99.90
2018-03-25T19:31:05.909Z,99.90
2018-03-25T19:33:34.300Z,99.90
2018-03-25T19:36:01.803Z,99.90
2018-03-25T19:38:29.497Z,99.90
2018-03-25T19:40:57.001Z,99.90
2018-03-25T19:43:24.554Z,99.90
2018-03-25T19:45:52.072Z,99.90
2018-03-25T19:48:19.590Z,99.90
2018-03-25T19:50:47.094Z,99.90
2018-03-25T19:53:14.581Z,99.90
2018-03-25T19:55:42.134Z,99.90
2018-03-25T19:58:09.787Z,99.90
2018-03-25T20:00:38.051Z,99.90
2018-03-25T20:03:06.350Z,99.90
2018-03-25T20:05:33.941Z,99.90
2018-03-25T20:08:01.418Z,99.90
2018-03-25T20:10:28.927Z,99.90
2018-03-25T20:12:57.491Z,99.90
2018-03-25T20:15:25.779Z,99.90
2018-03-25T20:17:54.038Z,99.90
2018-03-25T20:20:21.526Z,99.90
2018-03-25T20:22:49.013Z,99.90
2018-03-25T20:25:16.623Z,99.90
2018-03-25T20:27:44.898Z,99.90
2018-03-25T20:30:13.150Z,99.90
2018-03-25T20:32:40.661Z,99.90
2018-03-25T20:35:08.224Z,99.90
2018-03-25T20:37:35.778Z,99.90
2018-03-25T20:40:03.314Z,99.90
2018-03-25T20:42:30.982Z,99.90
2018-03-25T20:44:58.678Z,99.90
2018-03-25T20:47:26.256Z,99.90
2018-03-25T20:49:54.089Z,99.90
2018-03-25T20:52:21.615Z,99.90
2018-03-25T20:54:49.153Z,99.90
2018-03-25T20:57:16.635Z,99.90
2018-03-25T20:59:44.116Z,99.90
2018-03-25T21:02:11.715Z,99.90
2018-03-25T21:04:39.217Z,99.90
2018-03-25T21:07:07.483Z,99.90
2018-03-25T21:09:35.093Z,99.90
2018-03-25T21:12:02.592Z,99.90
2018-03-25T21:14:30.088Z,99.90
2018-03-25T21:16:58.363Z,99.90
2018-03-25T21:19:26.770Z,99.90
2018-03-25T21:21:54.269Z,99.90
2018-03-25T21:24:21.845Z,99.90
2018-03-25T21:26:50.102Z,99.90
2018-03-25T21:29:17.572Z,99.90
2018-03-25T21:31:45.091Z,99.90
2018-03-25T21:34:12.571Z,99.90
2018-03-25T21:36:40.046Z,99.90
2018-03-25T21:39:07.564Z,99.90
2018-03-25T21:41:35.052Z,99.90
2018-03-25T21:44:02.656Z,99.90
2018-03-25T21:46:30.191Z,99.90
2018-03-25T21:48:58.447Z,99.90
2018-03-25T21:51:26.802Z,99.90
2018-03-25T21:53:54.311Z,99.90
2018-03-25T21:56:22.555Z,99.90
2018-03-25T21:58:50.044Z,99.90
2018-03-25T22:01:18.311Z,99.90
2018-03-25T22:03:46.570Z,99.90
2018-03-25T22:06:14.058Z,99.90
2018-03-25T22:08:42.491Z,99.90
2018-03-25T22:11:10.036Z,99.90
2018-03-25T22:13:38.126Z,99.90
2018-03-25T22:16:05.660Z,99.90
2018-03-25T22:18:33.164Z,99.90
2018-03-25T22:21:00.728Z,99.90
2018-03-25T22:23:28.304Z,99.90
2018-03-25T22:25:56.571Z,99.90
2018-03-25T22:28:24.822Z,99.90
2018-03-25T22:30:52.410Z,99.90
2018-03-25T22:33:20.708Z,99.90
2018-03-25T22:35:48.290Z,99.90
2018-03-25T22:38:15.810Z,99.90
2018-03-25T22:40:44.056Z,99.90
2018-03-25T22:43:11.537Z,99.90
2018-03-25T22:45:39.818Z,99.90
2018-03-25T22:48:08.114Z,99.90
2018-03-25T22:50:35.678Z,99.90
2018-03-25T22:53:03.526Z,99.90
2018-03-25T22:55:31.776Z,99.90
2018-03-25T22:57:59.267Z,99.90
2018-03-25T23:00:27.164Z,99.90
2018-03-25T23:02:54.687Z,99.90
2018-03-25T23:05:22.962Z,99.90
2018-03-25T23:07:51.256Z,99.90
2018-03-25T23:10:18.747Z,99.90
2018-03-25T23:12:46.230Z,99.90
2018-03-25T23:15:15.250Z,99.90
2018-03-25T23:17:43.495Z,99.90
2018-03-25T23:20:10.979Z,99.90
2018-03-25T23:22:38.564Z,99.90
2018-03-25T23:25:06.058Z,99.90
2018-03-25T23:27:33.592Z,99.90
2018-03-25T23:30:01.107Z,99.90
2018-03-25T23:32:28.601Z,99.90
2018-03-25T23:34:56.096Z,99.90
2018-03-25T23:37:23.708Z,99.90
2018-03-25T23:39:51.972Z,99.90
2018-03-25T23:42:19.543Z,99.90
2018-03-25T23:44:47.936Z,99.90
2018-03-25T23:47:15.432Z,99.90
2018-03-25T23:49:42.962Z,99.90
2018-03-25T23:52:10.497Z,99.90
2018-03-25T23:54:38.757Z,99.90
2018-03-25T23:57:06.260Z,99.90
2018-03-25T23:59:33.792Z,99.90
